This is the latest recevied weather packets stored in our database for station/object KD2RHT-13. If no packets are shown the sender has not sent any weather packets the latest 1 day(s).
| Time | Temp. | Humidity | Pressure | Rain* | Wind** | Luminosity | Snow |
|---|---|---|---|---|---|---|---|
| 1778018379 | 17.78° C | 72% | 1008 hPa | 0 mm | 0 m/s | 112 W/m² | - |
| 1778018077 | 17.78° C | 73% | 1007.7 hPa | 0 mm | 0.89 m/s, 157° | 112 W/m² | - |
| 1778017775 | 17.78° C | 73% | 1007.7 hPa | 0 mm | 0.45 m/s, 174° | 136 W/m² | - |
| 1778017472 | 17.78° C | 73% | 1007.7 hPa | 0 mm | 1.79 m/s, 214° | 132 W/m² | - |
| 1778017169 | 17.78° C | 72% | 1008 hPa | 0 mm | 2.24 m/s, 341° | 121 W/m² | - |
| 1778016867 | 18.33° C | 73% | 1008 hPa | 0 mm | 1.34 m/s, 125° | 154 W/m² | - |
| 1778016563 | 18.33° C | 74% | 1007.7 hPa | 0 mm | 0.89 m/s, 198° | 229 W/m² | - |
| 1778016260 | 17.78° C | 75% | 1007.7 hPa | 0 mm | 1.34 m/s, 237° | 189 W/m² | - |
| 1778015956 | 17.78° C | 75% | 1007.7 hPa | 0 mm | 0.89 m/s, 246° | 107 W/m² | - |
| 1778015654 | 18.33° C | 74% | 1007.3 hPa | 0 mm | 1.34 m/s, 260° | 65 W/m² | - |
| 1778015350 | 18.33° C | 73% | 1007 hPa | 0 mm | 1.34 m/s, 232° | 45 W/m² | - |
| 1778015048 | 18.89° C | 72% | 1006.7 hPa | 0 mm | 1.34 m/s, 280° | 19 W/m² | - |
| 1778014744 | 19.44° C | 70% | 1007 hPa | 0 mm | 1.79 m/s, 304° | 44 W/m² | - |
| 1778014443 | 20° C | 68% | 1007 hPa | 0 mm | 0.45 m/s, 152° | 31 W/m² | - |
| 1778014139 | 20.56° C | 68% | 1006.7 hPa | 0 mm | 0.45 m/s, 230° | 18 W/m² | - |
| 1778013837 | 21.67° C | 65% | 1006.7 hPa | 0 mm | 1.79 m/s, 215° | 46 W/m² | - |
| 1778013534 | 22.78° C | 63% | 1006 hPa | 0 mm | 1.79 m/s, 202° | 93 W/m² | - |
| 1778013230 | 23.33° C | 65% | 1006 hPa | 0 mm | 1.34 m/s, 190° | 167 W/m² | - |
| 1778012927 | 22.78° C | 67% | 1006 hPa | 0 mm | 0 m/s | 264 W/m² | - |
| 1778012623 | 22.78° C | 66% | 1006 hPa | 0 mm | 0.45 m/s, 174° | 177 W/m² | - |
| 1778012320 | 22.78° C | 65% | 1006 hPa | 0 mm | 0.45 m/s, 221° | 170 W/m² | - |
| 1778012017 | 22.78° C | 66% | 1006.3 hPa | 0 mm | 0.89 m/s, 186° | 187 W/m² | - |
| 1778011716 | 22.78° C | 67% | 1006.3 hPa | 0 mm | 0.45 m/s, 177° | 196 W/m² | - |
| 1778011412 | 23.33° C | 66% | 1006.3 hPa | 0 mm | 0.89 m/s, 175° | 178 W/m² | - |
| 1778011107 | 23.89° C | 64% | 1006.3 hPa | 0 mm | 0.89 m/s, 192° | 468 W/m² | - |
* Rain latest hour (hover to see other rain measurements)
** Current wind speed in m/s (hover to see current wind gust speed)